sensor_id;sensor_type;location;lat;lon;timestamp;temperature;humidity
19090;DHT22;9677;50.656;13.064;2022-12-15T00:00:42;-0.10;57.30
19090;DHT22;9677;50.656;13.064;2022-12-15T00:03:28;-0.10;57.30
19090;DHT22;9677;50.656;13.064;2022-12-15T00:06:15;-0.10;57.30
19090;DHT22;9677;50.656;13.064;2022-12-15T00:09:02;-0.10;57.30
19090;DHT22;9677;50.656;13.064;2022-12-15T00:11:55;-0.10;57.30
19090;DHT22;9677;50.656;13.064;2022-12-15T00:14:41;-0.20;57.30
19090;DHT22;9677;50.656;13.064;2022-12-15T00:17:27;-0.20;57.20
19090;DHT22;9677;50.656;13.064;2022-12-15T00:20:13;-0.20;57.30
19090;DHT22;9677;50.656;13.064;2022-12-15T00:23:07;-0.20;57.30
19090;DHT22;9677;50.656;13.064;2022-12-15T00:25:54;-0.20;57.30
19090;DHT22;9677;50.656;13.064;2022-12-15T00:28:41;-0.30;57.30
19090;DHT22;9677;50.656;13.064;2022-12-15T00:31:27;-0.30;57.30
19090;DHT22;9677;50.656;13.064;2022-12-15T00:34:13;-0.30;57.30
19090;DHT22;9677;50.656;13.064;2022-12-15T00:36:59;-0.30;57.40
19090;DHT22;9677;50.656;13.064;2022-12-15T00:39:46;-0.30;57.30
19090;DHT22;9677;50.656;13.064;2022-12-15T00:42:25;-0.40;57.30
19090;DHT22;9677;50.656;13.064;2022-12-15T00:44:54;-0.40;57.30
19090;DHT22;9677;50.656;13.064;2022-12-15T00:47:23;-0.40;57.30
19090;DHT22;9677;50.656;13.064;2022-12-15T00:49:51;-0.40;57.30
19090;DHT22;9677;50.656;13.064;2022-12-15T00:52:37;-0.40;57.30
19090;DHT22;9677;50.656;13.064;2022-12-15T00:55:24;-0.50;57.20
19090;DHT22;9677;50.656;13.064;2022-12-15T00:58:11;-0.50;57.30
19090;DHT22;9677;50.656;13.064;2022-12-15T01:00:57;-0.50;57.20
19090;DHT22;9677;50.656;13.064;2022-12-15T01:03:43;-0.50;57.20
19090;DHT22;9677;50.656;13.064;2022-12-15T01:06:29;-0.50;57.30
19090;DHT22;9677;50.656;13.064;2022-12-15T01:09:15;-0.60;57.20
19090;DHT22;9677;50.656;13.064;2022-12-15T01:12:03;-0.60;57.20
19090;DHT22;9677;50.656;13.064;2022-12-15T01:14:49;-0.60;57.20
19090;DHT22;9677;50.656;13.064;2022-12-15T01:17:36;-0.60;57.20
19090;DHT22;9677;50.656;13.064;2022-12-15T01:20:21;-0.70;57.20
19090;DHT22;9677;50.656;13.064;2022-12-15T01:22:51;-0.70;57.20
19090;DHT22;9677;50.656;13.064;2022-12-15T01:25:23;-0.70;57.30
19090;DHT22;9677;50.656;13.064;2022-12-15T01:27:53;-0.70;57.30
19090;DHT22;9677;50.656;13.064;2022-12-15T01:30:24;-0.70;57.30
19090;DHT22;9677;50.656;13.064;2022-12-15T01:32:53;-0.70;57.40
19090;DHT22;9677;50.656;13.064;2022-12-15T01:35:22;-0.70;57.40
19090;DHT22;9677;50.656;13.064;2022-12-15T01:37:51;-0.70;57.40
19090;DHT22;9677;50.656;13.064;2022-12-15T01:40:20;-0.80;57.50
19090;DHT22;9677;50.656;13.064;2022-12-15T01:43:12;-0.80;57.50
19090;DHT22;9677;50.656;13.064;2022-12-15T01:45:56;-0.80;57.50
19090;DHT22;9677;50.656;13.064;2022-12-15T01:48:37;-0.70;57.50
19090;DHT22;9677;50.656;13.064;2022-12-15T01:51:13;-0.70;57.50
19090;DHT22;9677;50.656;13.064;2022-12-15T01:53:47;-0.80;57.40
19090;DHT22;9677;50.656;13.064;2022-12-15T01:56:22;-0.80;57.30
19090;DHT22;9677;50.656;13.064;2022-12-15T01:58:55;-0.80;57.30
19090;DHT22;9677;50.656;13.064;2022-12-15T02:01:26;-0.80;57.30
19090;DHT22;9677;50.656;13.064;2022-12-15T02:03:54;-0.80;57.20
19090;DHT22;9677;50.656;13.064;2022-12-15T02:06:24;-0.80;57.20
19090;DHT22;9677;50.656;13.064;2022-12-15T02:08:55;-0.90;57.20
19090;DHT22;9677;50.656;13.064;2022-12-15T02:11:42;-0.80;57.20
19090;DHT22;9677;50.656;13.064;2022-12-15T02:14:23;-0.90;57.20
19090;DHT22;9677;50.656;13.064;2022-12-15T02:17:14;-0.90;57.30
19090;DHT22;9677;50.656;13.064;2022-12-15T02:20:16;-0.90;57.30
19090;DHT22;9677;50.656;13.064;2022-12-15T02:29:30;-1.00;57.20
19090;DHT22;9677;50.656;13.064;2022-12-15T02:32:10;-1.00;57.20
19090;DHT22;9677;50.656;13.064;2022-12-15T02:34:43;-1.10;57.20
19090;DHT22;9677;50.656;13.064;2022-12-15T02:37:16;-1.10;57.20
19090;DHT22;9677;50.656;13.064;2022-12-15T02:39:48;-1.10;57.20
19090;DHT22;9677;50.656;13.064;2022-12-15T02:42:17;-1.10;57.30
19090;DHT22;9677;50.656;13.064;2022-12-15T02:44:48;-1.20;57.30
19090;DHT22;9677;50.656;13.064;2022-12-15T02:47:31;-1.20;57.30
19090;DHT22;9677;50.656;13.064;2022-12-15T02:50:27;-1.20;57.40
19090;DHT22;9677;50.656;13.064;2022-12-15T02:53:15;-1.20;57.40
19090;DHT22;9677;50.656;13.064;2022-12-15T02:55:59;-1.20;57.40
19090;DHT22;9677;50.656;13.064;2022-12-15T02:58:38;-1.20;57.40
19090;DHT22;9677;50.656;13.064;2022-12-15T03:01:17;-1.20;57.40
19090;DHT22;9677;50.656;13.064;2022-12-15T03:03:51;-1.20;57.40
19090;DHT22;9677;50.656;13.064;2022-12-15T03:06:20;-1.20;57.30
19090;DHT22;9677;50.656;13.064;2022-12-15T03:08:48;-1.20;57.30
19090;DHT22;9677;50.656;13.064;2022-12-15T03:11:17;-1.20;57.30
19090;DHT22;9677;50.656;13.064;2022-12-15T03:13:45;-1.20;57.40
19090;DHT22;9677;50.656;13.064;2022-12-15T03:16:15;-1.20;57.30
19090;DHT22;9677;50.656;13.064;2022-12-15T03:18:44;-1.20;57.40
19090;DHT22;9677;50.656;13.064;2022-12-15T03:21:14;-1.20;57.40
19090;DHT22;9677;50.656;13.064;2022-12-15T03:23:43;-1.20;57.40
19090;DHT22;9677;50.656;13.064;2022-12-15T03:26:11;-1.20;57.50
19090;DHT22;9677;50.656;13.064;2022-12-15T03:28:40;-1.20;57.60
19090;DHT22;9677;50.656;13.064;2022-12-15T03:31:09;-1.20;57.60
19090;DHT22;9677;50.656;13.064;2022-12-15T03:33:37;-1.20;57.60
19090;DHT22;9677;50.656;13.064;2022-12-15T03:36:07;-1.20;57.50
19090;DHT22;9677;50.656;13.064;2022-12-15T03:38:37;-1.20;57.50
19090;DHT22;9677;50.656;13.064;2022-12-15T03:41:06;-1.20;57.50
19090;DHT22;9677;50.656;13.064;2022-12-15T03:43:35;-1.10;57.50
19090;DHT22;9677;50.656;13.064;2022-12-15T03:46:03;-1.10;57.50
19090;DHT22;9677;50.656;13.064;2022-12-15T03:48:32;-1.10;57.50
19090;DHT22;9677;50.656;13.064;2022-12-15T03:51:01;-1.10;57.50
19090;DHT22;9677;50.656;13.064;2022-12-15T03:53:29;-1.10;57.50
19090;DHT22;9677;50.656;13.064;2022-12-15T03:56:00;-1.10;57.50
19090;DHT22;9677;50.656;13.064;2022-12-15T03:58:28;-1.10;58.00
19090;DHT22;9677;50.656;13.064;2022-12-15T04:00:57;-1.10;57.40
19090;DHT22;9677;50.656;13.064;2022-12-15T04:03:26;-1.10;57.40
19090;DHT22;9677;50.656;13.064;2022-12-15T04:05:55;-1.20;57.30
19090;DHT22;9677;50.656;13.064;2022-12-15T04:08:24;-1.10;57.30
19090;DHT22;9677;50.656;13.064;2022-12-15T04:10:52;-1.20;57.20
19090;DHT22;9677;50.656;13.064;2022-12-15T04:13:22;-1.20;57.30
19090;DHT22;9677;50.656;13.064;2022-12-15T04:15:51;-1.20;57.30
19090;DHT22;9677;50.656;13.064;2022-12-15T04:18:20;-1.20;57.30
19090;DHT22;9677;50.656;13.064;2022-12-15T04:20:48;-1.20;57.30
19090;DHT22;9677;50.656;13.064;2022-12-15T04:23:16;-1.20;57.30
19090;DHT22;9677;50.656;13.064;2022-12-15T04:25:45;-1.20;57.30
19090;DHT22;9677;50.656;13.064;2022-12-15T04:28:32;-1.20;57.30
19090;DHT22;9677;50.656;13.064;2022-12-15T04:31:21;-1.30;57.10
19090;DHT22;9677;50.656;13.064;2022-12-15T04:34:12;-1.30;57.10
19090;DHT22;9677;50.656;13.064;2022-12-15T04:37:00;-1.30;57.10
19090;DHT22;9677;50.656;13.064;2022-12-15T04:39:49;-1.30;57.10
19090;DHT22;9677;50.656;13.064;2022-12-15T04:42:38;-1.40;57.10
19090;DHT22;9677;50.656;13.064;2022-12-15T04:45:27;-1.40;57.00
19090;DHT22;9677;50.656;13.064;2022-12-15T04:48:13;-1.50;56.90
19090;DHT22;9677;50.656;13.064;2022-12-15T04:51:00;-1.50;56.90
19090;DHT22;9677;50.656;13.064;2022-12-15T04:53:46;-1.50;56.80
19090;DHT22;9677;50.656;13.064;2022-12-15T04:56:32;-1.60;56.80
19090;DHT22;9677;50.656;13.064;2022-12-15T04:59:18;-1.50;56.90
19090;DHT22;9677;50.656;13.064;2022-12-15T05:02:06;-1.70;56.90
19090;DHT22;9677;50.656;13.064;2022-12-15T05:04:52;-1.70;57.00
19090;DHT22;9677;50.656;13.064;2022-12-15T05:07:38;-1.70;57.10
19090;DHT22;9677;50.656;13.064;2022-12-15T05:10:24;-1.80;57.10
19090;DHT22;9677;50.656;13.064;2022-12-15T05:13:09;-1.80;57.10
19090;DHT22;9677;50.656;13.064;2022-12-15T05:15:56;-1.80;57.20
19090;DHT22;9677;50.656;13.064;2022-12-15T05:18:44;-1.80;57.20
19090;DHT22;9677;50.656;13.064;2022-12-15T05:21:30;-1.90;57.10
19090;DHT22;9677;50.656;13.064;2022-12-15T05:24:16;-1.90;57.10
19090;DHT22;9677;50.656;13.064;2022-12-15T05:27:02;-1.90;57.10
19090;DHT22;9677;50.656;13.064;2022-12-15T05:29:48;-1.90;57.10
19090;DHT22;9677;50.656;13.064;2022-12-15T05:32:34;-1.90;57.20
19090;DHT22;9677;50.656;13.064;2022-12-15T05:35:05;-1.90;57.20
19090;DHT22;9677;50.656;13.064;2022-12-15T05:37:34;-1.90;57.10
19090;DHT22;9677;50.656;13.064;2022-12-15T05:40:03;-2.00;57.00
19090;DHT22;9677;50.656;13.064;2022-12-15T05:42:33;-2.00;57.00
19090;DHT22;9677;50.656;13.064;2022-12-15T05:45:01;-2.00;57.00
19090;DHT22;9677;50.656;13.064;2022-12-15T05:47:31;-2.00;57.10
19090;DHT22;9677;50.656;13.064;2022-12-15T05:49:59;-2.00;57.10
19090;DHT22;9677;50.656;13.064;2022-12-15T05:52:29;-2.00;57.10
19090;DHT22;9677;50.656;13.064;2022-12-15T05:54:58;-2.00;57.10
19090;DHT22;9677;50.656;13.064;2022-12-15T05:57:26;-2.00;57.10
19090;DHT22;9677;50.656;13.064;2022-12-15T05:59:55;-2.00;57.00
19090;DHT22;9677;50.656;13.064;2022-12-15T06:02:23;-2.00;57.00
19090;DHT22;9677;50.656;13.064;2022-12-15T06:04:52;-2.00;57.00
19090;DHT22;9677;50.656;13.064;2022-12-15T06:07:21;-2.10;56.90
19090;DHT22;9677;50.656;13.064;2022-12-15T06:09:51;-2.10;56.90
19090;DHT22;9677;50.656;13.064;2022-12-15T06:12:19;-2.10;57.00
19090;DHT22;9677;50.656;13.064;2022-12-15T06:14:48;-2.10;56.90
19090;DHT22;9677;50.656;13.064;2022-12-15T06:17:16;-2.10;56.90
19090;DHT22;9677;50.656;13.064;2022-12-15T06:19:45;-2.10;56.90
19090;DHT22;9677;50.656;13.064;2022-12-15T06:22:14;-2.10;56.90
19090;DHT22;9677;50.656;13.064;2022-12-15T06:24:42;-1.80;57.10
19090;DHT22;9677;50.656;13.064;2022-12-15T06:27:12;-2.20;57.00
19090;DHT22;9677;50.656;13.064;2022-12-15T06:29:41;-2.00;57.10
19090;DHT22;9677;50.656;13.064;2022-12-15T06:32:09;-2.20;57.00
19090;DHT22;9677;50.656;13.064;2022-12-15T06:34:38;-2.20;57.00
19090;DHT22;9677;50.656;13.064;2022-12-15T06:37:07;-2.20;57.00
19090;DHT22;9677;50.656;13.064;2022-12-15T06:39:35;-2.20;56.90
19090;DHT22;9677;50.656;13.064;2022-12-15T06:42:04;-2.20;56.90
19090;DHT22;9677;50.656;13.064;2022-12-15T06:44:34;-2.20;57.60
19090;DHT22;9677;50.656;13.064;2022-12-15T06:47:03;-2.20;57.60
19090;DHT22;9677;50.656;13.064;2022-12-15T06:49:31;-2.20;57.00
19090;DHT22;9677;50.656;13.064;2022-12-15T06:52:00;-2.20;57.10
19090;DHT22;9677;50.656;13.064;2022-12-15T06:54:29;-2.20;57.10
19090;DHT22;9677;50.656;13.064;2022-12-15T06:56:57;-2.20;57.20
19090;DHT22;9677;50.656;13.064;2022-12-15T06:59:26;-2.20;57.20
19090;DHT22;9677;50.656;13.064;2022-12-15T07:01:56;-2.20;57.30
19090;DHT22;9677;50.656;13.064;2022-12-15T07:04:26;-2.20;57.30
19090;DHT22;9677;50.656;13.064;2022-12-15T07:06:56;-2.20;57.20
19090;DHT22;9677;50.656;13.064;2022-12-15T07:09:25;-2.20;57.20
19090;DHT22;9677;50.656;13.064;2022-12-15T07:11:54;-2.00;57.40
19090;DHT22;9677;50.656;13.064;2022-12-15T07:14:22;-2.20;57.30
19090;DHT22;9677;50.656;13.064;2022-12-15T07:16:51;-2.00;57.40
19090;DHT22;9677;50.656;13.064;2022-12-15T07:19:21;-2.10;57.30
19090;DHT22;9677;50.656;13.064;2022-12-15T07:21:50;-2.10;57.30
19090;DHT22;9677;50.656;13.064;2022-12-15T07:24:19;-2.10;57.20
19090;DHT22;9677;50.656;13.064;2022-12-15T07:26:48;-2.10;57.20
19090;DHT22;9677;50.656;13.064;2022-12-15T07:29:17;-2.10;57.10
19090;DHT22;9677;50.656;13.064;2022-12-15T07:31:49;-2.10;57.10
19090;DHT22;9677;50.656;13.064;2022-12-15T07:34:18;-2.10;57.10
19090;DHT22;9677;50.656;13.064;2022-12-15T07:36:48;-2.10;57.10
19090;DHT22;9677;50.656;13.064;2022-12-15T07:39:18;-2.10;57.10
19090;DHT22;9677;50.656;13.064;2022-12-15T07:41:47;-2.10;57.10
19090;DHT22;9677;50.656;13.064;2022-12-15T07:44:16;-2.10;57.10
19090;DHT22;9677;50.656;13.064;2022-12-15T07:46:44;-2.10;57.00
19090;DHT22;9677;50.656;13.064;2022-12-15T07:49:15;-2.20;56.90
19090;DHT22;9677;50.656;13.064;2022-12-15T07:51:44;-2.10;56.80
19090;DHT22;9677;50.656;13.064;2022-12-15T07:54:14;-1.80;56.90
19090;DHT22;9677;50.656;13.064;2022-12-15T07:56:43;-2.30;56.70
19090;DHT22;9677;50.656;13.064;2022-12-15T07:59:16;-1.90;57.00
19090;DHT22;9677;50.656;13.064;2022-12-15T08:01:45;-2.20;57.00
19090;DHT22;9677;50.656;13.064;2022-12-15T08:04:15;-2.30;57.10
19090;DHT22;9677;50.656;13.064;2022-12-15T08:06:44;-2.30;57.30
19090;DHT22;9677;50.656;13.064;2022-12-15T08:09:14;-2.30;57.40
19090;DHT22;9677;50.656;13.064;2022-12-15T08:11:43;-2.30;57.40
19090;DHT22;9677;50.656;13.064;2022-12-15T08:14:12;-2.30;57.50
19090;DHT22;9677;50.656;13.064;2022-12-15T08:16:44;-2.20;57.60
19090;DHT22;9677;50.656;13.064;2022-12-15T08:19:15;-2.20;57.60
19090;DHT22;9677;50.656;13.064;2022-12-15T08:21:44;-2.10;57.60
19090;DHT22;9677;50.656;13.064;2022-12-15T08:24:16;-2.10;57.60
19090;DHT22;9677;50.656;13.064;2022-12-15T08:26:45;-2.10;57.50
19090;DHT22;9677;50.656;13.064;2022-12-15T08:29:16;-2.10;57.50
19090;DHT22;9677;50.656;13.064;2022-12-15T08:32:05;-2.00;57.50
19090;DHT22;9677;50.656;13.064;2022-12-15T08:34:34;-2.00;57.50
19090;DHT22;9677;50.656;13.064;2022-12-15T08:37:02;-2.00;57.50
19090;DHT22;9677;50.656;13.064;2022-12-15T08:39:32;-1.80;57.50
19090;DHT22;9677;50.656;13.064;2022-12-15T08:42:01;-1.90;57.50
19090;DHT22;9677;50.656;13.064;2022-12-15T08:44:30;-1.90;57.50
19090;DHT22;9677;50.656;13.064;2022-12-15T08:46:58;-1.80;57.50
19090;DHT22;9677;50.656;13.064;2022-12-15T08:49:27;-1.80;57.50
19090;DHT22;9677;50.656;13.064;2022-12-15T08:51:55;-1.80;57.50
19090;DHT22;9677;50.656;13.064;2022-12-15T08:54:24;-1.70;58.10
19090;DHT22;9677;50.656;13.064;2022-12-15T08:56:54;-1.50;57.60
19090;DHT22;9677;50.656;13.064;2022-12-15T08:59:22;-1.70;57.50
19090;DHT22;9677;50.656;13.064;2022-12-15T09:01:51;-1.60;57.50
19090;DHT22;9677;50.656;13.064;2022-12-15T09:04:20;-1.60;57.40
19090;DHT22;9677;50.656;13.064;2022-12-15T09:06:50;-1.60;57.40
19090;DHT22;9677;50.656;13.064;2022-12-15T09:09:19;-1.40;57.40
19090;DHT22;9677;50.656;13.064;2022-12-15T09:11:48;-1.60;57.40
19090;DHT22;9677;50.656;13.064;2022-12-15T09:14:18;-1.60;57.40
19090;DHT22;9677;50.656;13.064;2022-12-15T09:16:55;-1.60;57.30
19090;DHT22;9677;50.656;13.064;2022-12-15T09:19:23;-1.60;57.30
19090;DHT22;9677;50.656;13.064;2022-12-15T09:21:52;-1.60;57.20
19090;DHT22;9677;50.656;13.064;2022-12-15T09:24:22;-1.60;57.20
19090;DHT22;9677;50.656;13.064;2022-12-15T09:27:00;-1.60;57.30
19090;DHT22;9677;50.656;13.064;2022-12-15T09:29:31;-1.60;57.30
19090;DHT22;9677;50.656;13.064;2022-12-15T09:32:01;-1.60;57.40
19090;DHT22;9677;50.656;13.064;2022-12-15T09:34:38;-1.60;57.40
19090;DHT22;9677;50.656;13.064;2022-12-15T09:37:06;-1.60;57.40
19090;DHT22;9677;50.656;13.064;2022-12-15T09:39:35;-1.60;57.40
19090;DHT22;9677;50.656;13.064;2022-12-15T09:42:05;-1.50;57.50
19090;DHT22;9677;50.656;13.064;2022-12-15T09:44:36;-1.50;57.60
19090;DHT22;9677;50.656;13.064;2022-12-15T09:47:12;-1.50;57.70
19090;DHT22;9677;50.656;13.064;2022-12-15T09:49:53;-1.50;57.70
19090;DHT22;9677;50.656;13.064;2022-12-15T09:52:25;-1.50;57.80
19090;DHT22;9677;50.656;13.064;2022-12-15T09:54:55;-1.50;57.90
19090;DHT22;9677;50.656;13.064;2022-12-15T09:57:32;-1.40;58.00
19090;DHT22;9677;50.656;13.064;2022-12-15T10:00:14;-1.40;58.00
19090;DHT22;9677;50.656;13.064;2022-12-15T10:03:04;-1.30;58.10
19090;DHT22;9677;50.656;13.064;2022-12-15T10:06:08;-1.30;58.10
19090;DHT22;9677;50.656;13.064;2022-12-15T10:09:00;-1.20;58.30
19090;DHT22;9677;50.656;13.064;2022-12-15T10:11:42;-1.20;58.20
19090;DHT22;9677;50.656;13.064;2022-12-15T10:14:26;-1.10;58.40
19090;DHT22;9677;50.656;13.064;2022-12-15T10:17:06;-1.10;58.40
19090;DHT22;9677;50.656;13.064;2022-12-15T10:19:51;-1.00;58.40
19090;DHT22;9677;50.656;13.064;2022-12-15T10:22:24;-0.90;58.40
19090;DHT22;9677;50.656;13.064;2022-12-15T10:24:54;-0.90;58.40
19090;DHT22;9677;50.656;13.064;2022-12-15T10:28:09;-0.80;58.50
19090;DHT22;9677;50.656;13.064;2022-12-15T10:30:51;-0.80;58.60
19090;DHT22;9677;50.656;13.064;2022-12-15T10:33:30;-0.70;58.60
19090;DHT22;9677;50.656;13.064;2022-12-15T10:36:06;-0.60;58.60
19090;DHT22;9677;50.656;13.064;2022-12-15T10:38:37;-0.50;58.70
19090;DHT22;9677;50.656;13.064;2022-12-15T10:41:10;-0.50;58.60
19090;DHT22;9677;50.656;13.064;2022-12-15T10:43:40;-0.40;58.60
19090;DHT22;9677;50.656;13.064;2022-12-15T10:46:14;-0.40;58.60
19090;DHT22;9677;50.656;13.064;2022-12-15T10:48:47;-0.10;58.70
19090;DHT22;9677;50.656;13.064;2022-12-15T10:51:20;-0.30;58.50
19090;DHT22;9677;50.656;13.064;2022-12-15T10:53:51;-0.20;58.60
19090;DHT22;9677;50.656;13.064;2022-12-15T10:56:23;-0.20;58.50
19090;DHT22;9677;50.656;13.064;2022-12-15T10:59:01;-0.10;58.60
19090;DHT22;9677;50.656;13.064;2022-12-15T11:01:32;-0.10;58.60
19090;DHT22;9677;50.656;13.064;2022-12-15T11:04:03;0.00;58.60
19090;DHT22;9677;50.656;13.064;2022-12-15T11:06:41;0.10;58.70
19090;DHT22;9677;50.656;13.064;2022-12-15T11:09:26;0.10;58.80
19090;DHT22;9677;50.656;13.064;2022-12-15T11:11:56;0.20;58.90
19090;DHT22;9677;50.656;13.064;2022-12-15T11:14:44;0.30;58.90
19090;DHT22;9677;50.656;13.064;2022-12-15T11:17:15;0.40;59.00
19090;DHT22;9677;50.656;13.064;2022-12-15T11:19:51;0.50;59.10
19090;DHT22;9677;50.656;13.064;2022-12-15T11:22:36;0.60;59.10
19090;DHT22;9677;50.656;13.064;2022-12-15T11:25:22;0.90;59.30
19090;DHT22;9677;50.656;13.064;2022-12-15T11:27:59;0.80;59.20
19090;DHT22;9677;50.656;13.064;2022-12-15T11:30:33;0.90;59.40
19090;DHT22;9677;50.656;13.064;2022-12-15T11:33:07;1.10;59.60
19090;DHT22;9677;50.656;13.064;2022-12-15T11:35:51;1.20;59.70
19090;DHT22;9677;50.656;13.064;2022-12-15T11:38:31;1.40;59.80
19090;DHT22;9677;50.656;13.064;2022-12-15T11:41:09;1.50;59.90
19090;DHT22;9677;50.656;13.064;2022-12-15T11:43:58;1.70;60.00
19090;DHT22;9677;50.656;13.064;2022-12-15T11:46:41;1.90;60.70
19090;DHT22;9677;50.656;13.064;2022-12-15T11:49:27;2.10;59.80
19090;DHT22;9677;50.656;13.064;2022-12-15T11:52:37;2.20;59.70
19090;DHT22;9677;50.656;13.064;2022-12-15T11:55:20;2.40;59.50
19090;DHT22;9677;50.656;13.064;2022-12-15T11:58:25;2.50;59.30
19090;DHT22;9677;50.656;13.064;2022-12-15T12:01:14;2.70;59.10
19090;DHT22;9677;50.656;13.064;2022-12-15T12:03:54;2.80;59.60
19090;DHT22;9677;50.656;13.064;2022-12-15T12:06:33;3.00;59.00
19090;DHT22;9677;50.656;13.064;2022-12-15T12:09:26;3.00;58.70
19090;DHT22;9677;50.656;13.064;2022-12-15T12:12:03;3.30;58.70
19090;DHT22;9677;50.656;13.064;2022-12-15T12:14:50;3.30;58.50
19090;DHT22;9677;50.656;13.064;2022-12-15T12:17:34;3.30;58.40
19090;DHT22;9677;50.656;13.064;2022-12-15T12:20:13;3.40;58.30
19090;DHT22;9677;50.656;13.064;2022-12-15T12:22:53;3.40;58.10
19090;DHT22;9677;50.656;13.064;2022-12-15T12:25:26;3.50;58.00
19090;DHT22;9677;50.656;13.064;2022-12-15T12:27:56;3.60;58.00
19090;DHT22;9677;50.656;13.064;2022-12-15T12:30:32;3.60;57.80
19090;DHT22;9677;50.656;13.064;2022-12-15T12:33:10;3.70;57.80
19090;DHT22;9677;50.656;13.064;2022-12-15T12:35:44;3.70;57.60
19090;DHT22;9677;50.656;13.064;2022-12-15T12:38:16;3.80;57.60
19090;DHT22;9677;50.656;13.064;2022-12-15T12:40:58;3.80;57.50
19090;DHT22;9677;50.656;13.064;2022-12-15T12:43:32;3.80;57.30
19090;DHT22;9677;50.656;13.064;2022-12-15T12:46:06;3.80;57.30
19090;DHT22;9677;50.656;13.064;2022-12-15T12:48:40;3.90;57.30
19090;DHT22;9677;50.656;13.064;2022-12-15T12:51:27;3.90;57.20
19090;DHT22;9677;50.656;13.064;2022-12-15T12:53:57;3.90;57.10
19090;DHT22;9677;50.656;13.064;2022-12-15T12:56:35;3.90;57.10
19090;DHT22;9677;50.656;13.064;2022-12-15T12:59:35;3.90;57.00
19090;DHT22;9677;50.656;13.064;2022-12-15T13:05:28;3.90;56.90
19090;DHT22;9677;50.656;13.064;2022-12-15T13:14:47;4.00;56.80
19090;DHT22;9677;50.656;13.064;2022-12-15T13:17:28;4.00;56.90
19090;DHT22;9677;50.656;13.064;2022-12-15T13:20:23;3.90;56.70
19090;DHT22;9677;50.656;13.064;2022-12-15T13:22:55;3.90;56.50
19090;DHT22;9677;50.656;13.064;2022-12-15T13:25:44;4.10;56.70
19090;DHT22;9677;50.656;13.064;2022-12-15T13:28:40;3.90;56.60
19090;DHT22;9677;50.656;13.064;2022-12-15T13:31:41;3.90;56.30
19090;DHT22;9677;50.656;13.064;2022-12-15T13:34:23;3.90;56.30
19090;DHT22;9677;50.656;13.064;2022-12-15T13:36:55;3.90;56.30
19090;DHT22;9677;50.656;13.064;2022-12-15T13:42:33;3.80;56.00
19090;DHT22;9677;50.656;13.064;2022-12-15T13:45:50;3.80;56.00
19090;DHT22;9677;50.656;13.064;2022-12-15T13:48:30;3.70;55.90
19090;DHT22;9677;50.656;13.064;2022-12-15T13:51:08;3.70;55.90
19090;DHT22;9677;50.656;13.064;2022-12-15T13:53:43;3.60;56.50
19090;DHT22;9677;50.656;13.064;2022-12-15T13:56:27;3.60;56.00
19090;DHT22;9677;50.656;13.064;2022-12-15T13:59:28;3.50;55.90
19090;DHT22;9677;50.656;13.064;2022-12-15T14:02:22;3.50;55.90
19090;DHT22;9677;50.656;13.064;2022-12-15T14:05:12;3.40;55.70
19090;DHT22;9677;50.656;13.064;2022-12-15T14:07:46;3.30;55.60
19090;DHT22;9677;50.656;13.064;2022-12-15T14:10:23;3.30;55.60
19090;DHT22;9677;50.656;13.064;2022-12-15T14:12:54;3.20;56.20
19090;DHT22;9677;50.656;13.064;2022-12-15T14:15:27;3.10;55.50
19090;DHT22;9677;50.656;13.064;2022-12-15T14:18:00;3.10;55.50
19090;DHT22;9677;50.656;13.064;2022-12-15T14:20:31;3.00;55.40
19090;DHT22;9677;50.656;13.064;2022-12-15T14:23:17;2.90;55.40
19090;DHT22;9677;50.656;13.064;2022-12-15T14:25:54;2.80;55.30
19090;DHT22;9677;50.656;13.064;2022-12-15T14:28:26;2.80;55.40
19090;DHT22;9677;50.656;13.064;2022-12-15T14:31:00;2.70;55.40
19090;DHT22;9677;50.656;13.064;2022-12-15T14:33:36;2.60;55.30
19090;DHT22;9677;50.656;13.064;2022-12-15T14:36:09;2.50;55.30
19090;DHT22;9677;50.656;13.064;2022-12-15T14:38:43;2.50;55.30
19090;DHT22;9677;50.656;13.064;2022-12-15T14:41:18;2.30;55.30
19090;DHT22;9677;50.656;13.064;2022-12-15T14:43:49;2.20;55.30
19090;DHT22;9677;50.656;13.064;2022-12-15T14:46:41;2.20;55.40
19090;DHT22;9677;50.656;13.064;2022-12-15T14:49:18;2.10;55.40
19090;DHT22;9677;50.656;13.064;2022-12-15T14:51:50;2.00;55.40
19090;DHT22;9677;50.656;13.064;2022-12-15T14:54:27;1.50;55.20
19090;DHT22;9677;50.656;13.064;2022-12-15T14:57:00;1.90;55.50
19090;DHT22;9677;50.656;13.064;2022-12-15T14:59:32;1.80;55.50
19090;DHT22;9677;50.656;13.064;2022-12-15T15:02:09;1.70;55.40
19090;DHT22;9677;50.656;13.064;2022-12-15T15:04:41;1.60;55.40
19090;DHT22;9677;50.656;13.064;2022-12-15T15:07:16;1.60;55.40
19090;DHT22;9677;50.656;13.064;2022-12-15T15:09:45;1.50;55.40
19090;DHT22;9677;50.656;13.064;2022-12-15T15:12:16;1.40;55.40
19090;DHT22;9677;50.656;13.064;2022-12-15T15:14:47;1.30;55.40
19090;DHT22;9677;50.656;13.064;2022-12-15T15:17:23;1.30;55.50
19090;DHT22;9677;50.656;13.064;2022-12-15T15:19:56;1.20;55.50
19090;DHT22;9677;50.656;13.064;2022-12-15T15:22:34;1.20;55.60
19090;DHT22;9677;50.656;13.064;2022-12-15T15:25:25;1.10;56.10
19090;DHT22;9677;50.656;13.064;2022-12-15T15:28:02;1.00;55.50
19090;DHT22;9677;50.656;13.064;2022-12-15T15:30:43;0.90;55.40
19090;DHT22;9677;50.656;13.064;2022-12-15T15:33:15;0.80;55.50
19090;DHT22;9677;50.656;13.064;2022-12-15T15:35:50;0.80;55.50
19090;DHT22;9677;50.656;13.064;2022-12-15T15:38:22;0.70;55.50
19090;DHT22;9677;50.656;13.064;2022-12-15T15:40:54;0.60;55.60
19090;DHT22;9677;50.656;13.064;2022-12-15T15:43:25;0.60;55.60
19090;DHT22;9677;50.656;13.064;2022-12-15T15:45:57;0.50;55.60
19090;DHT22;9677;50.656;13.064;2022-12-15T15:48:31;0.50;55.60
19090;DHT22;9677;50.656;13.064;2022-12-15T15:51:04;0.40;55.70
19090;DHT22;9677;50.656;13.064;2022-12-15T15:53:34;0.40;55.70
19090;DHT22;9677;50.656;13.064;2022-12-15T15:56:03;0.30;56.30
19090;DHT22;9677;50.656;13.064;2022-12-15T15:58:34;0.30;55.80
19090;DHT22;9677;50.656;13.064;2022-12-15T16:01:04;0.50;56.00
19090;DHT22;9677;50.656;13.064;2022-12-15T16:03:40;0.20;55.90
19090;DHT22;9677;50.656;13.064;2022-12-15T16:06:15;0.40;56.00
19090;DHT22;9677;50.656;13.064;2022-12-15T16:08:49;0.10;55.90
19090;DHT22;9677;50.656;13.064;2022-12-15T16:11:20;0.10;55.90
19090;DHT22;9677;50.656;13.064;2022-12-15T16:13:50;0.00;56.00
19090;DHT22;9677;50.656;13.064;2022-12-15T16:16:22;0.20;56.00
19090;DHT22;9677;50.656;13.064;2022-12-15T16:18:52;-0.10;55.80
19090;DHT22;9677;50.656;13.064;2022-12-15T16:21:27;-0.10;55.80
19090;DHT22;9677;50.656;13.064;2022-12-15T16:23:56;-0.20;55.80
19090;DHT22;9677;50.656;13.064;2022-12-15T16:26:27;-0.20;55.90
19090;DHT22;9677;50.656;13.064;2022-12-15T16:28:57;-0.20;55.90
19090;DHT22;9677;50.656;13.064;2022-12-15T16:31:28;-0.30;55.90
19090;DHT22;9677;50.656;13.064;2022-12-15T16:34:07;-0.30;56.00
19090;DHT22;9677;50.656;13.064;2022-12-15T16:36:37;-0.30;56.60
19090;DHT22;9677;50.656;13.064;2022-12-15T16:39:21;-0.40;55.90
19090;DHT22;9677;50.656;13.064;2022-12-15T16:41:53;-0.40;55.90
19090;DHT22;9677;50.656;13.064;2022-12-15T16:44:22;-0.40;56.00
19090;DHT22;9677;50.656;13.064;2022-12-15T16:46:52;-0.50;56.50
19090;DHT22;9677;50.656;13.064;2022-12-15T16:49:21;-0.50;56.00